createdAt,value
2023-01-12T00:01:53.652Z,100296.16
2023-01-12T00:04:21.516Z,100287.75
2023-01-12T00:06:48.930Z,100288.97
2023-01-12T00:09:16.330Z,100308.56
2023-01-12T00:11:44.418Z,100301.19
2023-01-12T00:14:11.807Z,100309.41
2023-01-12T00:16:39.507Z,100310.31
2023-01-12T00:19:11.465Z,100322.03
2023-01-12T00:22:10.748Z,100311.34
2023-01-12T00:24:39.592Z,100306.41
2023-01-12T00:27:12.413Z,100299.34
2023-01-12T00:29:40.549Z,100301.22
2023-01-12T00:32:12.229Z,100290.09
2023-01-12T00:34:39.903Z,100299.97
2023-01-12T00:37:07.294Z,100308.47
2023-01-12T00:39:40.352Z,100313.72
2023-01-12T00:42:27.304Z,100319.22
2023-01-12T00:45:13.202Z,100324.38
2023-01-12T00:47:43.081Z,100309.66
2023-01-12T00:50:10.536Z,100309.41
2023-01-12T00:52:37.907Z,100308.06
2023-01-12T00:55:06.169Z,100308.31
2023-01-12T00:57:33.819Z,100315.47
2023-01-12T01:00:01.492Z,100308.88
2023-01-12T01:02:29.474Z,100315.37
2023-01-12T01:04:56.911Z,100318.31
2023-01-12T01:07:25.026Z,100329.19
2023-01-12T01:09:52.671Z,100328.03
2023-01-12T01:12:20.383Z,100325.94
2023-01-12T01:14:47.905Z,100323.12
2023-01-12T01:17:15.832Z,100325.13
2023-01-12T01:19:43.716Z,100332.41
2023-01-12T01:22:12.980Z,100335.22
2023-01-12T01:24:41.808Z,100333.50
2023-01-12T01:27:09.223Z,100329.94
2023-01-12T01:29:36.620Z,100334.06
2023-01-12T01:32:04.615Z,100331.69
2023-01-12T01:34:32.627Z,100341.06
2023-01-12T01:37:00.111Z,100336.63
2023-01-12T01:39:27.796Z,100337.12
2023-01-12T01:41:55.173Z,100342.97
2023-01-12T01:44:31.354Z,100340.69
2023-01-12T01:47:08.429Z,100344.72
2023-01-12T01:49:54.392Z,100346.50
2023-01-12T01:52:35.077Z,100347.81
2023-01-12T01:55:02.411Z,100342.50
2023-01-12T01:58:01.265Z,100351.59
2023-01-12T02:00:28.801Z,100354.22
2023-01-12T02:02:57.093Z,100350.69
2023-01-12T02:05:26.430Z,100341.03
2023-01-12T02:07:54.391Z,100345.13
2023-01-12T02:10:22.085Z,100343.56
2023-01-12T02:13:09.262Z,100351.97
2023-01-12T02:16:07.684Z,100352.22
2023-01-12T02:18:56.961Z,100357.75
2023-01-12T02:21:54.509Z,100354.06
2023-01-12T02:24:40.672Z,100357.88
2023-01-12T02:27:11.272Z,100347.75
2023-01-12T02:30:10.806Z,100350.66
2023-01-12T02:32:59.995Z,100357.97
2023-01-12T02:35:35.550Z,100346.38
2023-01-12T02:38:21.421Z,100346.47
2023-01-12T02:41:00.224Z,100345.19
2023-01-12T02:43:32.649Z,100352.25
2023-01-12T02:46:11.886Z,100358.81
2023-01-12T02:48:56.205Z,100357.12
2023-01-12T02:51:52.885Z,100349.59
2023-01-12T02:54:21.721Z,100346.97
2023-01-12T02:56:54.493Z,100343.44
2023-01-12T02:59:28.149Z,100334.78
2023-01-12T03:02:08.809Z,100342.25
2023-01-12T03:04:36.717Z,100347.34
2023-01-12T03:07:27.564Z,100342.19
2023-01-12T03:10:12.308Z,100347.78
2023-01-12T03:12:41.469Z,100349.47
2023-01-12T03:15:10.853Z,100349.16
2023-01-12T03:17:43.169Z,100353.06
2023-01-12T03:20:17.512Z,100345.91
2023-01-12T03:22:45.726Z,100336.84
2023-01-12T03:25:15.396Z,100336.06
2023-01-12T03:27:46.080Z,100336.06
2023-01-12T03:30:20.344Z,100340.72
2023-01-12T03:32:48.727Z,100341.63
2023-01-12T03:35:16.847Z,100332.72
2023-01-12T03:37:56.160Z,100333.47
2023-01-12T03:40:28.240Z,100335.69
2023-01-12T03:43:04.865Z,100328.72
2023-01-12T03:45:39.762Z,100327.53
2023-01-12T03:48:15.517Z,100327.25
2023-01-12T03:50:48.063Z,100334.16
2023-01-12T03:53:18.170Z,100325.19
2023-01-12T03:55:48.722Z,100342.63
2023-01-12T03:58:17.264Z,100340.22
2023-01-12T04:00:44.853Z,100331.06
2023-01-12T04:03:14.906Z,100338.75
2023-01-12T04:05:43.558Z,100338.63
2023-01-12T04:08:15.343Z,100340.06
2023-01-12T04:10:43.139Z,100332.16
2023-01-12T04:13:10.528Z,100332.66
2023-01-12T04:15:42.438Z,100331.09
2023-01-12T04:18:11.574Z,100329.00
2023-01-12T04:20:39.777Z,100321.56
2023-01-12T04:23:07.281Z,100331.53
2023-01-12T04:25:35.478Z,100327.12
2023-01-12T04:28:03.651Z,100322.94
2023-01-12T04:30:32.629Z,100322.63
2023-01-12T04:33:01.281Z,100323.03
2023-01-12T04:35:28.677Z,100324.00
2023-01-12T04:37:56.548Z,100329.97
2023-01-12T04:40:25.035Z,100336.28
2023-01-12T04:43:01.314Z,100332.88
2023-01-12T04:45:30.366Z,100339.44
2023-01-12T04:48:09.042Z,100337.31
2023-01-12T04:50:36.933Z,100336.56
2023-01-12T04:53:06.322Z,100336.56
2023-01-12T04:55:36.282Z,100335.00
2023-01-12T04:58:04.163Z,100334.56
2023-01-12T05:00:31.712Z,100333.66
2023-01-12T05:03:02.231Z,100337.19
2023-01-12T05:05:31.883Z,100335.69
2023-01-12T05:08:19.062Z,100339.75
2023-01-12T05:10:51.233Z,100336.25
2023-01-12T05:13:18.942Z,100339.13
2023-01-12T05:15:46.628Z,100338.63
2023-01-12T05:18:14.144Z,100343.50
2023-01-12T05:20:41.720Z,100346.38
2023-01-12T05:23:09.447Z,100356.00
2023-01-12T05:25:36.951Z,100365.28
2023-01-12T05:28:04.758Z,100363.00
2023-01-12T05:30:32.486Z,100368.03
2023-01-12T05:32:59.961Z,100366.19
2023-01-12T05:35:27.391Z,100355.84
2023-01-12T05:37:56.632Z,100351.12
2023-01-12T05:40:24.525Z,100349.94
2023-01-12T05:43:10.495Z,100352.44
2023-01-12T05:45:38.379Z,100357.69
2023-01-12T05:48:06.084Z,100357.75
2023-01-12T05:50:33.502Z,100353.53
2023-01-12T05:53:09.109Z,100362.28
2023-01-12T05:55:37.714Z,100361.38
2023-01-12T05:58:05.469Z,100359.63
2023-01-12T06:00:33.146Z,100366.28
2023-01-12T06:03:02.659Z,100363.63
2023-01-12T06:05:30.127Z,100353.31
2023-01-12T06:07:58.071Z,100348.87
2023-01-12T06:10:25.790Z,100350.75
2023-01-12T06:13:11.824Z,100351.31
2023-01-12T06:15:39.836Z,100354.09
2023-01-12T06:18:07.233Z,100351.59
2023-01-12T06:20:34.679Z,100349.09
2023-01-12T06:23:03.641Z,100351.59
2023-01-12T06:25:32.105Z,100360.25
2023-01-12T06:27:59.537Z,100360.13
2023-01-12T06:30:27.236Z,100361.41
2023-01-12T06:32:54.586Z,100369.06
2023-01-12T06:35:22.318Z,100367.69
2023-01-12T06:37:49.962Z,100376.25
2023-01-12T06:40:17.391Z,100382.09
2023-01-12T06:42:44.856Z,100392.53
2023-01-12T06:45:12.491Z,100400.34
2023-01-12T06:47:50.590Z,100398.03
2023-01-12T06:50:18.659Z,100398.03
2023-01-12T06:52:46.113Z,100391.31
2023-01-12T06:55:13.558Z,100396.66
2023-01-12T06:57:41.206Z,100395.78
2023-01-12T07:00:09.371Z,100411.41
2023-01-12T07:02:36.783Z,100403.66
2023-01-12T07:05:05.052Z,100411.56
2023-01-12T07:07:32.463Z,100412.41
2023-01-12T07:09:59.808Z,100414.75
2023-01-12T07:12:27.482Z,100412.97
2023-01-12T07:14:56.211Z,100407.03
2023-01-12T07:17:23.631Z,100416.09
2023-01-12T07:19:51.338Z,100411.75
2023-01-12T07:22:18.703Z,100416.13
2023-01-12T07:24:46.064Z,100417.22
2023-01-12T07:27:13.863Z,100415.91
2023-01-12T07:29:41.241Z,100417.19
2023-01-12T07:32:08.661Z,100421.00
2023-01-12T07:34:36.381Z,100431.16
2023-01-12T07:37:03.748Z,100430.81
2023-01-12T07:39:31.231Z,100436.06
2023-01-12T07:42:17.753Z,100442.09
2023-01-12T07:44:45.107Z,100445.06
2023-01-12T07:47:12.803Z,100447.63
2023-01-12T07:49:40.237Z,100454.59
2023-01-12T07:52:07.880Z,100446.19
2023-01-12T07:54:36.385Z,100440.22
2023-01-12T07:57:04.516Z,100449.53
2023-01-12T07:59:31.861Z,100436.72
2023-01-12T08:01:59.585Z,100444.59
2023-01-12T08:04:27.487Z,100445.66
2023-01-12T08:06:54.883Z,100451.63
2023-01-12T08:09:22.232Z,100457.28
2023-01-12T08:11:49.905Z,100451.34
2023-01-12T08:14:26.434Z,100449.00
2023-01-12T08:16:56.447Z,100451.50
2023-01-12T08:19:27.037Z,100450.91
2023-01-12T08:21:58.763Z,100454.84
2023-01-12T08:24:30.464Z,100460.84
2023-01-12T08:27:00.489Z,100459.47
2023-01-12T08:29:32.849Z,100462.22
2023-01-12T08:32:04.957Z,100456.56
2023-01-12T08:34:34.536Z,100452.62
2023-01-12T08:37:06.609Z,100456.19
2023-01-12T08:39:35.440Z,100464.91
2023-01-12T08:42:03.689Z,100464.28
2023-01-12T08:44:36.983Z,100468.84
2023-01-12T08:47:06.404Z,100463.47
2023-01-12T08:49:34.090Z,100469.53
2023-01-12T08:52:01.503Z,100471.16
2023-01-12T08:54:29.283Z,100461.50
2023-01-12T08:56:56.719Z,100463.84
2023-01-12T08:59:25.444Z,100467.13
2023-01-12T09:01:53.241Z,100474.22
2023-01-12T09:04:20.718Z,100470.56
2023-01-12T09:06:48.452Z,100468.31
2023-01-12T09:09:19.917Z,100468.06
2023-01-12T09:11:47.520Z,100462.31
2023-01-12T09:14:15.611Z,100459.16
2023-01-12T09:16:43.306Z,100457.37
2023-01-12T09:19:11.009Z,100452.09
2023-01-12T09:21:39.798Z,100462.78
2023-01-12T09:24:07.956Z,100463.69
2023-01-12T09:26:40.320Z,100467.06
2023-01-12T09:29:08.767Z,100467.25
2023-01-12T09:31:37.382Z,100460.41
2023-01-12T09:34:04.815Z,100460.19
2023-01-12T09:36:34.863Z,100459.72
2023-01-12T09:39:04.345Z,100464.91
2023-01-12T09:41:54.548Z,100465.81
2023-01-12T09:44:48.520Z,100461.44
2023-01-12T09:47:18.469Z,100464.50
2023-01-12T09:49:53.646Z,100462.50
2023-01-12T09:52:33.820Z,100460.78
2023-01-12T09:55:01.210Z,100456.22
2023-01-12T09:57:37.616Z,100457.13
2023-01-12T10:00:09.436Z,100454.66
2023-01-12T10:02:43.224Z,100458.69
2023-01-12T10:05:22.047Z,100452.84
2023-01-12T10:07:54.452Z,100454.84
2023-01-12T10:10:22.523Z,100452.16
2023-01-12T10:12:54.890Z,100450.66
2023-01-12T10:15:26.584Z,100448.94
2023-01-12T10:18:03.337Z,100448.13
2023-01-12T10:20:39.008Z,100441.03
2023-01-12T10:23:11.375Z,100431.81
2023-01-12T10:25:50.544Z,100433.31
2023-01-12T10:28:38.405Z,100437.47
2023-01-12T10:31:06.940Z,100438.66
2023-01-12T10:33:34.651Z,100436.34
2023-01-12T10:36:16.570Z,100437.81
2023-01-12T10:39:01.002Z,100434.44
2023-01-12T10:41:35.310Z,100438.31
2023-01-12T10:44:02.813Z,100432.66
2023-01-12T10:46:32.413Z,100431.84
2023-01-12T10:49:19.556Z,100431.72
2023-01-12T10:51:58.290Z,100430.47
2023-01-12T10:54:28.261Z,100424.50
2023-01-12T10:57:01.803Z,100422.78
2023-01-12T10:59:32.456Z,100421.59
2023-01-12T11:02:06.887Z,100425.50
2023-01-12T11:04:38.861Z,100426.25
2023-01-12T11:07:28.928Z,100420.25
2023-01-12T11:09:59.881Z,100424.47
2023-01-12T11:12:37.580Z,100412.75
2023-01-12T11:15:16.913Z,100404.00
2023-01-12T11:18:05.659Z,100405.91
2023-01-12T11:21:10.784Z,100409.56
2023-01-12T11:24:03.079Z,100405.47
2023-01-12T11:26:43.294Z,100410.16
2023-01-12T11:29:31.889Z,100405.22
2023-01-12T11:32:37.882Z,100392.38
2023-01-12T11:35:21.490Z,100387.53
2023-01-12T11:37:49.217Z,100382.28
2023-01-12T11:40:32.019Z,100389.22
2023-01-12T11:43:36.851Z,100387.09
2023-01-12T11:46:35.950Z,100385.59
2023-01-12T11:49:18.844Z,100371.00
2023-01-12T11:51:51.347Z,100378.69
2023-01-12T11:54:19.075Z,100378.88
2023-01-12T11:57:07.854Z,100383.66
2023-01-12T11:59:56.564Z,100381.22
2023-01-12T12:02:49.351Z,100376.97
2023-01-12T12:05:20.951Z,100386.91
2023-01-12T12:08:25.869Z,100370.03
2023-01-12T12:11:00.573Z,100372.81
2023-01-12T12:13:34.429Z,100372.75
2023-01-12T12:16:05.042Z,100372.66
2023-01-12T12:19:00.774Z,100371.03
2023-01-12T12:21:48.039Z,100371.94
2023-01-12T12:24:21.187Z,100376.41
2023-01-12T12:26:57.057Z,100374.94
2023-01-12T12:29:40.952Z,100376.25
2023-01-12T12:32:30.013Z,100371.19
2023-01-12T12:35:12.280Z,100376.53
2023-01-12T12:37:58.784Z,100365.16
2023-01-12T12:40:56.816Z,100365.13
2023-01-12T12:43:51.736Z,100357.38
2023-01-12T12:46:48.333Z,100353.34
2023-01-12T12:49:22.181Z,100352.50
2023-01-12T12:51:49.945Z,100346.38
2023-01-12T12:54:19.213Z,100345.72
2023-01-12T12:56:47.354Z,100345.75
2023-01-12T12:59:33.148Z,100347.56
2023-01-12T13:02:02.344Z,100339.91
2023-01-12T13:04:46.291Z,100348.53
2023-01-12T13:07:16.869Z,100337.31
2023-01-12T13:09:44.317Z,100334.75
2023-01-12T13:12:34.271Z,100340.09
2023-01-12T13:15:26.663Z,100339.16
2023-01-12T13:17:54.809Z,100351.28
2023-01-12T13:20:26.341Z,100339.03
2023-01-12T13:22:53.892Z,100346.88
2023-01-12T13:25:23.042Z,100339.13
2023-01-12T13:28:05.633Z,100341.78
2023-01-12T13:30:34.254Z,100340.03
2023-01-12T13:33:28.771Z,100341.66
2023-01-12T13:36:01.490Z,100339.97
2023-01-12T13:38:43.792Z,100350.25
2023-01-12T13:41:14.363Z,100345.19
2023-01-12T13:43:49.593Z,100344.31
2023-01-12T13:46:31.081Z,100349.53
2023-01-12T13:49:00.251Z,100348.63
2023-01-12T13:51:40.399Z,100342.72
2023-01-12T13:54:14.768Z,100347.62
2023-01-12T13:56:43.033Z,100354.69
2023-01-12T13:59:18.336Z,100352.03
2023-01-12T14:01:47.971Z,100352.25
2023-01-12T14:04:19.460Z,100349.66
2023-01-12T14:07:12.724Z,100347.19
2023-01-12T14:10:01.550Z,100345.41
2023-01-12T14:12:51.731Z,100353.09
2023-01-12T14:15:54.979Z,100352.25
2023-01-12T14:18:23.547Z,100344.47
2023-01-12T14:20:58.687Z,100340.09
2023-01-12T14:23:31.310Z,100338.44
2023-01-12T14:26:14.709Z,100332.28
2023-01-12T14:28:44.601Z,100331.38
2023-01-12T14:31:39.596Z,100335.75
2023-01-12T14:34:07.745Z,100337.47
2023-01-12T14:36:45.545Z,100327.12
2023-01-12T14:39:22.456Z,100325.37
2023-01-12T14:42:11.308Z,100324.44
2023-01-12T14:45:17.643Z,100329.66
2023-01-12T14:47:45.476Z,100327.88
2023-01-12T14:50:12.819Z,100322.63
2023-01-12T14:52:45.190Z,100317.59
2023-01-12T14:55:24.907Z,100327.97
2023-01-12T14:57:58.213Z,100318.28
2023-01-12T15:00:28.802Z,100314.75
2023-01-12T15:02:58.297Z,100317.22
2023-01-12T15:05:27.538Z,100325.84
2023-01-12T15:08:00.297Z,100330.97
2023-01-12T15:10:39.674Z,100329.19
2023-01-12T15:13:25.855Z,100317.91
2023-01-12T15:16:15.088Z,100319.63
2023-01-12T15:19:01.202Z,100316.84
2023-01-12T15:21:48.658Z,100320.19
2023-01-12T15:24:48.492Z,100309.81
2023-01-12T15:27:18.634Z,100315.84
2023-01-12T15:29:46.255Z,100326.00
2023-01-12T15:32:21.475Z,100318.22
2023-01-12T15:34:49.539Z,100324.09
2023-01-12T15:37:18.512Z,100333.53
2023-01-12T15:39:46.846Z,100335.87
2023-01-12T15:42:16.825Z,100328.75
2023-01-12T15:44:44.950Z,100331.41
2023-01-12T15:47:16.555Z,100332.16
2023-01-12T15:49:48.483Z,100340.72
2023-01-12T15:52:20.953Z,100343.13
2023-01-12T15:54:49.214Z,100337.06
2023-01-12T15:57:17.128Z,100342.19
2023-01-12T15:59:44.561Z,100337.88
2023-01-12T16:02:30.061Z,100343.72
2023-01-12T16:04:58.743Z,100340.28
2023-01-12T16:07:26.165Z,100351.16
2023-01-12T16:09:55.186Z,100353.81
2023-01-12T16:12:23.628Z,100356.38
2023-01-12T16:14:51.275Z,100352.56
2023-01-12T16:17:18.621Z,100354.19
2023-01-12T16:19:46.324Z,100343.56
2023-01-12T16:22:22.395Z,100348.06
2023-01-12T16:24:51.253Z,100355.72
2023-01-12T16:27:20.208Z,100338.41
2023-01-12T16:29:47.685Z,100345.06
2023-01-12T16:32:15.898Z,100350.56
2023-01-12T16:34:43.341Z,100346.06
2023-01-12T16:37:15.730Z,100352.72
2023-01-12T16:39:43.678Z,100356.94
2023-01-12T16:42:11.198Z,100354.22
2023-01-12T16:44:40.150Z,100354.78
2023-01-12T16:47:11.759Z,100359.13
2023-01-12T16:49:39.285Z,100357.12
2023-01-12T16:52:07.908Z,100355.72
2023-01-12T16:54:41.630Z,100358.91
2023-01-12T16:57:10.113Z,100362.44
2023-01-12T16:59:37.844Z,100367.97
2023-01-12T17:02:08.241Z,100361.72
2023-01-12T17:04:37.650Z,100368.31
2023-01-12T17:07:06.305Z,100363.78
2023-01-12T17:09:34.807Z,100367.25
2023-01-12T17:12:02.935Z,100365.34
2023-01-12T17:14:33.603Z,100365.50
2023-01-12T17:17:04.938Z,100368.00
2023-01-12T17:19:34.672Z,100355.03
2023-01-12T17:22:02.993Z,100363.72
2023-01-12T17:24:31.402Z,100358.44
2023-01-12T17:26:59.487Z,100355.87
2023-01-12T17:29:28.046Z,100356.13
2023-01-12T17:32:03.382Z,100358.63
2023-01-12T17:34:33.478Z,100351.56
2023-01-12T17:37:08.165Z,100355.72
2023-01-12T17:39:37.330Z,100355.56
2023-01-12T17:42:23.155Z,100347.66
2023-01-12T17:44:50.883Z,100358.09
2023-01-12T17:47:18.570Z,100360.84
2023-01-12T17:49:47.832Z,100366.91
2023-01-12T17:52:16.240Z,100359.91
2023-01-12T17:54:43.627Z,100363.38
2023-01-12T17:57:11.200Z,100358.53
2023-01-12T17:59:39.362Z,100363.28
2023-01-12T18:02:07.225Z,100363.25
2023-01-12T18:04:35.010Z,100362.31
2023-01-12T18:07:02.526Z,100364.31
2023-01-12T18:09:31.194Z,100361.41
2023-01-12T18:12:00.218Z,100362.47
2023-01-12T18:14:27.714Z,100363.13
2023-01-12T18:16:55.289Z,100360.44
2023-01-12T18:19:22.973Z,100365.31
2023-01-12T18:21:50.768Z,100355.22
2023-01-12T18:24:18.239Z,100356.00
2023-01-12T18:26:45.953Z,100355.03
2023-01-12T18:29:13.305Z,100353.16
2023-01-12T18:31:42.443Z,100357.62
2023-01-12T18:34:10.679Z,100357.75
2023-01-12T18:39:12.495Z,100366.31
2023-01-12T18:41:58.852Z,100360.28
2023-01-12T18:44:26.643Z,100361.09
2023-01-12T18:47:14.546Z,100357.62
2023-01-12T18:49:46.433Z,100356.75
2023-01-12T18:52:33.554Z,100363.41
2023-01-12T18:55:01.076Z,100364.78
2023-01-12T18:57:31.199Z,100362.44
2023-01-12T19:00:10.141Z,100354.66
2023-01-12T19:02:38.757Z,100358.94
2023-01-12T19:05:12.257Z,100353.56
2023-01-12T19:07:52.089Z,100350.25
2023-01-12T19:10:19.525Z,100353.47
2023-01-12T19:12:47.918Z,100351.50
2023-01-12T19:15:34.507Z,100343.00
2023-01-12T19:18:02.260Z,100342.63
2023-01-12T19:20:30.551Z,100341.84
2023-01-12T19:23:16.363Z,100347.09
2023-01-12T19:26:02.311Z,100344.25
2023-01-12T19:28:32.719Z,100339.13
2023-01-12T19:31:04.702Z,100335.44
2023-01-12T19:33:32.915Z,100328.41
2023-01-12T19:36:05.719Z,100323.84
2023-01-12T19:38:33.401Z,100318.69
2023-01-12T19:41:11.080Z,100310.94
2023-01-12T19:43:44.877Z,100309.28
2023-01-12T19:46:15.924Z,100309.19
2023-01-12T19:48:44.569Z,100312.25
2023-01-12T19:51:12.265Z,100300.38
2023-01-12T19:53:40.199Z,100304.72
2023-01-12T19:56:11.549Z,100303.88
2023-01-12T19:58:39.464Z,100301.50
2023-01-12T20:01:07.941Z,100302.66
2023-01-12T20:03:36.190Z,100302.06
2023-01-12T20:06:07.257Z,100314.81
2023-01-12T20:08:34.617Z,100316.22
2023-01-12T20:11:05.158Z,100308.47
2023-01-12T20:13:34.548Z,100304.06
2023-01-12T20:16:07.388Z,100314.72
2023-01-12T20:18:35.090Z,100319.19
2023-01-12T20:21:08.091Z,100316.72
2023-01-12T20:23:35.523Z,100318.56
2023-01-12T20:26:07.639Z,100324.63
2023-01-12T20:28:35.560Z,100326.31
2023-01-12T20:31:12.267Z,100333.41
2023-01-12T20:33:39.948Z,100335.97
2023-01-12T20:36:12.298Z,100337.25
2023-01-12T20:38:40.748Z,100332.91
2023-01-12T20:41:09.257Z,100339.22
2023-01-12T20:43:36.696Z,100340.12
2023-01-12T20:46:08.093Z,100338.97
2023-01-12T20:48:35.956Z,100333.16
2023-01-12T20:51:10.218Z,100324.91
2023-01-12T20:56:06.089Z,100326.38
2023-01-12T20:58:33.574Z,100336.94
2023-01-12T21:01:01.471Z,100326.53
2023-01-12T21:03:29.161Z,100328.31
2023-01-12T21:05:57.604Z,100329.75
2023-01-12T21:08:25.546Z,100338.13
2023-01-12T21:10:53.844Z,100330.66
2023-01-12T21:13:21.979Z,100336.09
2023-01-12T21:15:57.445Z,100336.44
2023-01-12T21:18:24.925Z,100339.28
2023-01-12T21:20:52.919Z,100342.78
2023-01-12T21:23:20.502Z,100344.94
2023-01-12T21:25:48.121Z,100338.16
2023-01-12T21:28:15.867Z,100337.22
2023-01-12T21:30:43.643Z,100340.25
2023-01-12T21:33:11.835Z,100332.41
2023-01-12T21:35:39.719Z,100327.25
2023-01-12T21:38:07.252Z,100331.84
2023-01-12T21:40:34.696Z,100327.84
2023-01-12T21:43:08.290Z,100340.28
2023-01-12T21:45:40.892Z,100337.50
2023-01-12T21:48:09.579Z,100329.66
2023-01-12T21:50:37.692Z,100327.94
2023-01-12T21:53:06.147Z,100322.78
2023-01-12T21:55:34.421Z,100327.03
2023-01-12T21:58:04.706Z,100327.72
2023-01-12T22:00:32.161Z,100327.84
2023-01-12T22:02:59.938Z,100330.06
2023-01-12T22:05:27.733Z,100323.00
2023-01-12T22:07:55.340Z,100315.72
2023-01-12T22:10:30.111Z,100317.72
2023-01-12T22:13:02.703Z,100317.25
2023-01-12T22:15:30.696Z,100319.72
2023-01-12T22:17:58.157Z,100313.19
2023-01-12T22:20:27.760Z,100313.50
2023-01-12T22:22:55.687Z,100310.22
2023-01-12T22:25:23.231Z,100302.53
2023-01-12T22:27:50.672Z,100306.25
2023-01-12T22:30:21.049Z,100303.12
2023-01-12T22:32:48.784Z,100314.09
2023-01-12T22:35:16.234Z,100307.63
2023-01-12T22:37:43.936Z,100301.69
2023-01-12T22:40:11.853Z,100300.66
2023-01-12T22:42:57.956Z,100294.34
2023-01-12T22:45:25.620Z,100287.09
2023-01-12T22:47:54.373Z,100293.25
2023-01-12T22:50:22.420Z,100291.13
2023-01-12T22:52:54.530Z,100282.84
2023-01-12T22:55:23.874Z,100277.13
2023-01-12T22:57:51.705Z,100279.59
2023-01-12T23:00:20.514Z,100272.88
2023-01-12T23:03:00.360Z,100271.81
2023-01-12T23:05:31.870Z,100279.59
2023-01-12T23:07:59.973Z,100277.66
2023-01-12T23:10:28.263Z,100283.72
2023-01-12T23:13:15.915Z,100274.81
2023-01-12T23:15:56.656Z,100282.69
2023-01-12T23:18:29.220Z,100281.72
2023-01-12T23:21:02.490Z,100287.13
2023-01-12T23:23:30.742Z,100298.06
2023-01-12T23:26:02.939Z,100295.59
2023-01-12T23:28:30.317Z,100299.47
2023-01-12T23:31:05.816Z,100294.78
2023-01-12T23:33:33.243Z,100290.31
2023-01-12T23:36:12.639Z,100292.53
2023-01-12T23:38:40.464Z,100295.09
2023-01-12T23:41:18.173Z,100291.81
2023-01-12T23:43:46.821Z,100296.81
2023-01-12T23:46:16.911Z,100304.19
2023-01-12T23:48:44.390Z,100291.00
2023-01-12T23:51:11.721Z,100292.94
2023-01-12T23:53:39.347Z,100295.53
2023-01-12T23:56:09.542Z,100301.03
2023-01-12T23:58:37.363Z,100298.66
